Latest Weather Observations for Dwellingup

IDW60801

Issued at 5:13 am WST Saturday 19 September 2020 (issued every 10 minutes, with the page automatically refreshed every 10 minutes)

About weather observations | Map of weather stations | Latest weather observations for WA | Other Formats
Station Details ID: 009538 Name: DWELLINGUP Lat: -32.71 Lon: 116.06 Height: 267.0 m
Data from the previous 72 hours. | See also: Recent months at Dwellingup
Date/Time
WST
Temp
°C
App
Temp
°C
Dew
Point
°C
Rel
Hum
%
Delta-T
°C
Wind Press
QNH
hPa
Press
MSL
hPa
Rain since
9am
mm
Dir  Spd
km/h
Gust
km/h
Spd
kts
Gust
kts
19/05:04am 12.6 7.8 11.7 94 0.5 WSW 28 48 15 26 1005.9 1005.8 9.4
19/05:00am 12.7 8.7 11.9 95 0.4 WSW 24 48 13 26 1006.0 1005.9 9.2
19/04:30am 12.6 9.9 11.7 94 0.5 W 17 33 9 18 1005.7 1005.6 7.0
19/04:00am 12.9 11.4 12.0 94 0.5 WNW 11 19 6 10 1005.3 1005.2 2.0
19/03:30am 12.7 10.4 11.6 93 0.6 NW 15 22 8 12 1005.5 1005.4 1.6
19/03:00am 12.7 10.0 11.6 93 0.6 NW 17 32 9 17 1006.0 1005.9 1.6
19/02:30am 12.4 9.5 11.1 92 0.7 NW 17 35 9 19 1006.3 1006.3 1.0
19/02:00am 11.8 8.7 10.2 90 0.8 NW 17 26 9 14 1006.9 1006.9 0.8
19/01:30am 10.5 7.2 6.6 77 1.9 NNW 13 19 7 10 1007.3 1007.3 0.0
19/01:00am 9.8 6.5 6.5 80 1.6 N 13 15 7 8 1007.6 1007.6 0.0
19/12:30am 8.5 5.4 5.4 81 1.4 N 11 13 6 7 1008.1 1008.0 0.0
19/12:00am 9.8 6.4 6.0 77 1.8 N 13 19 7 10 1008.3 1008.2 0.0
 
Date/Time
WST
Temp
°C
App
Temp
°C
Dew
Point
°C
Rel
Hum
%
Delta-T
°C
Wind Press
QNH
hPa
Press
MSL
hPa
Rain since
9am
mm
Dir  Spd
km/h
Gust
km/h
Spd
kts
Gust
kts
18/11:30pm 8.9 5.7 5.3 78 1.6 N 11 17 6 9 1009.0 1008.9 0.0
18/11:00pm 8.3 5.1 5.1 80 1.5 N 11 15 6 8 1009.5 1009.5 0.0
18/10:30pm 8.6 5.3 4.8 77 1.7 N 11 13 6 7 1010.2 1010.2 0.0
18/10:00pm 9.0 5.7 4.6 74 2.0 NNW 11 11 6 6 1010.6 1010.6 0.0
18/09:30pm 9.6 6.3 4.4 70 2.3 N 11 13 6 7 1010.6 1010.6 0.0
18/09:00pm 10.2 6.5 4.6 68 2.6 N 13 15 7 8 1010.9 1010.9 0.0
18/08:30pm 10.5 7.2 4.4 66 2.8 N 11 15 6 8 1011.1 1011.1 0.0
18/08:00pm 10.7 7.3 4.2 64 2.9 N 11 15 6 8 1011.3 1011.3 0.0
18/07:30pm 11.2 7.8 4.2 62 3.2 N 11 15 6 8 1011.5 1011.5 0.0
18/07:00pm 11.8 8.4 4.1 59 3.5 NNW 11 13 6 7 1011.9 1011.8 0.0
18/06:30pm 13.1 9.6 3.5 52 4.4 NNW 11 15 6 8 1012.0 1011.9 0.0
18/06:00pm 15.1 11.6 3.3 45 5.4 NNW 11 15 6 8 1011.9 1011.8 0.0
18/05:30pm 16.6 13.2 1.9 37 6.7 NW 9 15 5 8 1012.2 1012.1 0.0
18/05:00pm 17.3 13.2 2.1 36 7.0 WNW 13 22 7 12 1012.5 1012.4 0.0
18/04:30pm 17.6 13.3 1.2 33 7.4 NW 13 22 7 12 1012.4 1012.3 0.0
18/04:00pm 18.6 14.4 1.6 32 7.8 WNW 13 26 7 14 1012.5 1012.4 0.0
18/03:30pm 18.8 15.1 2.6 34 7.6 W 11 20 6 11 1012.7 1012.7 0.0
18/03:00pm 19.3 15.4 3.5 35 7.5 W 13 26 7 14 1013.2 1013.2 0.0
18/02:30pm 18.5 14.6 3.2 36 7.2 NW 13 24 7 13 1013.4 1013.4 0.0
18/02:00pm 18.7 14.3 2.5 34 7.6 NW 15 30 8 16 1013.9 1013.9 0.0
18/01:30pm 18.1 13.9 1.6 33 7.5 NW 13 20 7 11 1014.0 1014.0 0.0
18/01:00pm 18.8 14.5 3.0 35 7.4 NW 15 26 8 14 1014.4 1014.4 0.0
18/12:30pm 18.3 14.3 3.0 36 7.2 NW 13 30 7 16 1015.1 1015.1 0.0
18/12:00pm 18.0 14.9 3.5 38 6.9 NNW 9 22 5 12 1016.1 1016.1 0.0
18/11:30am 17.2 13.2 3.1 39 6.6 NNE 13 22 7 12 1016.6 1016.6 0.0
18/11:00am 15.8 11.9 3.6 44 5.7 NE 13 26 7 14 1017.0 1017.0 0.0
18/10:30am 15.1 11.3 3.9 47 5.2 NE 13 24 7 13 1017.6 1017.6 0.0
18/10:00am 14.0 9.9 4.6 53 4.4 NE 15 33 8 18 1018.2 1018.2 0.0
18/09:30am 13.2 9.4 4.1 54 4.2 NE 13 22 7 12 1018.9 1019.0 0.0
18/09:00am 11.9 7.5 4.9 62 3.2 NE 17 30 9 16 1019.4 1019.5 0.0
18/08:30am 10.2 5.1 4.1 66 2.7 NNE 20 35 11 19 1019.7 1019.7 0.0
18/08:00am 8.6 4.4 4.0 73 2.0 NE 15 28 8 15 1019.8 1019.8 0.0
18/07:30am 7.4 2.9 4.0 79 1.5 NE 17 28 9 15 1019.7 1019.7 0.0
18/07:00am 6.4 2.6 3.9 84 1.1 NE 13 24 7 13 1019.4 1019.5 0.0
18/06:30am 4.7 0.3 2.9 88 0.7 ENE 15 24 8 13 1019.5 1019.6 0.0
18/06:00am 4.5 0.0 2.4 86 0.9 ENE 15 20 8 11 1019.7 1019.7 0.0
18/05:30am 4.9 0.4 2.4 84 1.0 ENE 15 22 8 12 1020.0 1020.0 0.0
18/05:00am 4.9 0.5 2.6 85 0.9 ENE 15 20 8 11 1019.8 1019.8 0.0
18/04:30am 5.0 0.5 2.4 83 1.1 ENE 15 22 8 12 1020.0 1020.0 0.0
18/04:00am 5.3 1.2 2.5 82 1.2 E 13 19 7 10 1020.4 1020.4 0.0
18/03:30am 5.9 1.8 2.5 79 1.4 E 13 17 7 9 1020.5 1020.5 0.0
18/03:00am 6.8 2.8 2.7 75 1.7 ESE 13 22 7 12 1020.7 1020.7 0.0
18/02:30am 7.0 2.3 2.9 75 1.7 E 17 33 9 18 1020.6 1020.6 0.0
18/02:00am 7.0 2.0 3.4 78 1.5 E 19 30 10 16 1021.0 1021.0 0.0
18/01:30am 7.5 2.5 3.6 76 1.7 E 19 32 10 17 1021.7 1021.7 0.0
18/01:00am 7.9 3.3 3.9 76 1.7 E 17 33 9 18 1022.1 1022.2 0.0
18/12:30am 8.5 4.3 3.9 73 2.0 E 15 28 8 15 1022.4 1022.5 0.0
18/12:00am 8.8 4.3 4.0 72 2.1 E 17 28 9 15 1022.6 1022.7 0.0
 
Date/Time
WST
Temp
°C
App
Temp
°C
Dew
Point
°C
Rel
Hum
%
Delta-T
°C
Wind Press
QNH
hPa
Press
MSL
hPa
Rain since
9am
mm
Dir  Spd
km/h
Gust
km/h
Spd
kts
Gust
kts
17/11:30pm 9.3 5.5 3.9 69 2.4 ESE 13 19 7 10 1022.9 1023.0 0.0
17/11:00pm 9.6 5.4 4.0 68 2.5 ESE 15 26 8 14 1022.9 1023.0 0.0
17/10:30pm 8.8 4.6 4.0 72 2.1 ESE 15 22 8 12 1023.1 1023.2 0.0
17/10:00pm 9.3 5.5 3.7 68 2.5 ESE 13 19 7 10 1023.2 1023.3 0.0
17/09:30pm 10.0 5.5 4.2 67 2.6 ESE 17 28 9 15 1022.8 1022.9 0.0
17/09:00pm 11.0 6.8 3.8 61 3.2 ESE 15 28 8 15 1023.4 1023.5 0.0
17/08:30pm 11.4 6.4 3.7 59 3.5 ESE 19 30 10 16 1023.0 1023.1 0.0
17/08:00pm 11.1 6.6 4.3 63 3.1 ESE 17 28 9 15 1023.1 1023.2 0.0
17/07:30pm 11.5 7.1 4.5 62 3.2 E 17 28 9 15 1023.3 1023.4 0.0
17/07:00pm 12.0 7.9 4.2 59 3.6 ESE 15 28 8 15 1023.7 1023.7 0.0
17/06:30pm 13.0 8.5 4.4 56 4.0 ESE 17 26 9 14 1023.9 1023.9 0.0
17/06:00pm 13.6 9.9 4.2 53 4.3 ESE 13 19 7 10 1023.8 1023.8 0.0
17/05:30pm 15.1 11.3 3.9 47 5.2 SE 13 17 7 9 1023.9 1023.9 0.0
17/05:00pm 15.8 11.9 3.6 44 5.7 ESE 13 20 7 11 1023.9 1023.9 0.0
17/04:30pm 16.4 12.2 3.8 43 5.9 SE 15 26 8 14 1024.1 1024.1 0.0
17/04:00pm 16.8 12.2 3.8 42 6.1 ESE 17 28 9 15 1023.9 1023.9 0.0
17/03:30pm 16.4 11.3 3.1 41 6.2 E 19 32 10 17 1023.9 1023.9 0.0
17/03:00pm 16.6 12.1 4.3 44 5.8 ESE 17 30 9 16 1023.7 1023.7 0.0
17/02:30pm 16.9 11.3 3.2 40 6.4 E 22 35 12 19 1023.9 1023.9 0.0
17/02:00pm 16.2 10.5 2.9 41 6.1 ENE 22 41 12 22 1024.0 1024.0 0.0
17/01:30pm 16.0 10.3 2.8 41 6.1 E 22 46 12 25 1024.2 1024.2 0.0
17/01:00pm 15.9 10.7 3.7 44 5.7 E 20 43 11 23 1024.6 1024.6 0.0
17/12:30pm 15.4 10.2 3.5 45 5.5 E 20 37 11 20 1025.1 1025.1 0.0
17/12:00pm 14.7 9.1 3.2 46 5.2 E 22 48 12 26 1025.4 1025.5 0.0
17/11:30am 15.0 8.1 4.4 49 5.0 E 30 52 16 28 1025.8 1025.9 0.0
17/11:00am 14.0 7.4 4.0 51 4.6 E 28 50 15 27 1026.2 1026.3 0.0
17/10:37am 13.4 6.8 4.0 53 4.3 E 28 46 15 25 1026.5 1026.6 0.0
17/10:30am 13.4 7.2 4.3 54 4.2 E 26 48 14 26 1026.6 1026.7 0.0
17/10:00am 12.1 5.6 4.6 60 3.4 E 28 50 15 27 1026.9 1027.0 0.0
17/09:41am 11.3 4.5 3.3 58 3.6 E 28 46 15 25 1027.1 1027.2 0.0
17/09:30am 11.2 6.0 3.5 59 3.4 E 20 37 11 20 1027.2 1027.3 0.0
17/09:00am 11.1 5.0 4.6 64 3.0 E 26 50 14 27 1027.6 1027.6 0.0
17/08:57am 10.7 4.1 4.4 65 2.9 ESE 28 50 15 27 1027.6 1027.6 0.0
17/08:30am 10.6 5.6 4.7 67 2.7 ESE 20 41 11 22 1027.6 1027.6 0.0
17/08:00am 9.7 2.3 3.9 67 2.6 E 32 57 17 31 1027.6 1027.6 0.0
17/07:42am 9.8 3.2 4.4 69 2.4 ESE 28 56 15 30 1027.3 1027.4 0.0
17/07:30am 9.6 3.3 4.0 68 2.5 ESE 26 46 14 25 1027.3 1027.4 0.0
17/07:25am 9.5 2.9 4.1 69 2.4 E 28 46 15 25 1027.5 1027.5 0.0
17/07:00am 9.4 4.4 4.8 73 2.1 ESE 20 32 11 17 1027.2 1027.3 0.0
17/06:30am 9.0 3.8 5.6 79 1.6 E 22 39 12 21 1027.0 1027.1 0.0
17/06:00am 8.9 4.1 5.8 81 1.4 E 20 35 11 19 1026.8 1026.9 0.0
17/05:30am 9.2 3.6 5.4 77 1.7 E 24 44 13 24 1026.4 1026.5 0.0
17/05:00am 9.8 3.7 4.6 70 2.3 ESE 26 48 14 26 1026.0 1026.1 0.0
17/04:35am 9.8 3.2 4.4 69 2.4 ESE 28 48 15 26 1025.7 1025.8 0.0
17/04:30am 9.8 4.0 4.6 70 2.4 ESE 24 43 13 23 1025.7 1025.8 0.0
17/04:00am 9.8 5.1 5.2 73 2.1 ESE 19 39 10 21 1026.0 1026.1 0.0
17/03:30am 9.8 3.7 4.8 71 2.3 ESE 26 44 14 24 1025.8 1025.9 0.0
17/03:04am 10.1 3.7 5.1 71 2.3 ESE 28 56 15 30 1025.8 1025.9 0.0
17/03:00am 10.1 5.2 4.9 70 2.4 ESE 20 37 11 20 1025.8 1025.9 0.0
17/02:30am 10.2 5.2 4.8 69 2.5 ESE 20 35 11 19 1025.8 1025.9 0.0
17/02:00am 10.5 3.7 5.1 69 2.5 ESE 30 52 16 28 1026.2 1026.3 0.0
17/01:51am 10.5 4.0 4.9 68 2.6 ESE 28 50 15 27 1026.1 1026.2 0.0
17/01:30am 10.7 6.1 5.5 70 2.4 SE 19 32 10 17 1026.4 1026.5 0.0
17/01:00am 10.8 6.1 5.3 69 2.5 ESE 19 37 10 20 1026.7 1026.8 0.0
17/12:30am 11.0 4.7 5.5 69 2.6 ESE 28 52 15 28 1026.7 1026.8 0.0
17/12:16am 11.1 4.8 5.6 69 2.6 SE 28 46 15 25 1026.7 1026.8 0.0
17/12:00am 11.2 5.7 5.7 69 2.6 SE 24 46 13 25 1026.9 1027.0 0.0
 
Date/Time
WST
Temp
°C
App
Temp
°C
Dew
Point
°C
Rel
Hum
%
Delta-T
°C
Wind Press
QNH
hPa
Press
MSL
hPa
Rain since
9am
mm
Dir  Spd
km/h
Gust
km/h
Spd
kts
Gust
kts
16/11:50pm 11.2 5.0 6.1 71 2.4 SE 28 50 15 27 1026.8 1026.9 0.0
16/11:30pm 11.2 5.9 6.7 74 2.2 SE 24 43 13 23 1027.0 1027.1 0.0
16/11:05pm 11.7 5.6 6.4 70 2.5 SE 28 48 15 26 1026.8 1026.9 0.0
16/11:00pm 11.8 6.0 6.3 69 2.6 SE 26 50 14 27 1026.7 1026.8 0.0
16/10:37pm 11.8 5.8 6.9 72 2.4 SE 28 52 15 28 1026.7 1026.8 0.0
16/10:30pm 11.7 6.4 6.8 72 2.4 SE 24 41 13 22 1026.7 1026.8 0.0
16/10:00pm 11.4 5.7 6.5 72 2.3 ESE 26 52 14 28 1026.6 1026.7 0.0
16/09:55pm 11.2 5.0 6.3 72 2.3 SE 28 46 15 25 1026.6 1026.7 0.0
16/09:30pm 11.8 6.9 6.7 71 2.5 SE 22 39 12 21 1026.4 1026.5 0.0
16/09:00pm 11.9 7.3 6.4 69 2.6 SE 20 33 11 18 1026.2 1026.3 0.0
16/08:30pm 12.2 7.8 6.5 68 2.7 SE 19 30 10 16 1025.8 1025.9 0.0
16/08:00pm 12.3 7.9 6.6 68 2.7 SE 19 32 10 17 1025.5 1025.6 0.0
16/07:30pm 12.7 8.7 6.7 67 2.9 ESE 17 28 9 15 1024.9 1024.9 0.0
16/07:00pm 13.5 9.5 6.6 63 3.3 SE 17 26 9 14 1024.4 1024.4 0.0
16/06:30pm 13.8 10.2 6.9 63 3.4 ESE 15 28 8 15 1023.8 1023.8 0.0
16/06:00pm 14.5 9.9 6.3 58 4.0 SE 20 39 11 21 1023.3 1023.4 0.0
16/05:30pm 15.2 10.8 7.3 59 4.0 SE 20 33 11 18 1023.1 1023.2 0.0
16/05:00pm 16.2 11.8 7.2 55 4.5 SE 20 33 11 18 1022.6 1022.7 0.0
16/04:30pm 16.7 12.5 7.4 54 4.7 SE 19 35 10 19 1021.8 1021.8 0.0
16/04:00pm 17.4 14.2 6.9 50 5.3 SE 13 22 7 12 1021.4 1021.4 0.0
16/03:30pm 17.0 14.2 6.8 51 5.1 SSE 11 17 6 9 1021.3 1021.3 0.0
16/03:00pm 17.3 14.3 7.6 53 4.9 ESE 13 26 7 14 1021.3 1021.3 0.0
16/02:30pm 16.7 13.4 6.5 51 5.1 S 13 22 7 12 1021.1 1021.1 0.0
16/02:00pm 17.9 15.1 7.0 49 5.5 SSE 11 24 6 13 1020.9 1020.9 0.0
16/01:30pm 17.4 14.5 6.6 49 5.4 SSE 11 17 6 9 1021.0 1021.0 0.0
16/01:00pm 16.6 14.6 6.4 51 5.0 SW 6 13 3 7 1021.1 1021.1 0.0
16/12:30pm 16.6 13.7 6.7 52 4.9 S 11 17 6 9 1021.1 1021.1 0.0
16/12:00pm 16.7 13.4 6.5 51 5.1 SSW 13 19 7 10 1021.4 1021.4 0.0
16/11:30am 16.0 12.8 6.7 54 4.6 S 13 19 7 10 1021.7 1021.7 0.0
16/11:00am 16.9 13.8 7.3 53 4.8 S 13 26 7 14 1021.6 1021.6 0.0
16/10:30am 15.9 11.9 6.6 54 4.6 S 17 26 9 14 1021.8 1021.8 0.0
16/10:00am 14.2 10.4 5.8 57 4.0 S 15 26 8 14 1022.2 1022.3 0.0
16/09:30am 14.2 9.8 6.6 60 3.7 SSE 19 32 10 17 1022.5 1022.6 0.0
16/09:00am 13.4 10.2 7.0 65 3.1 S 13 26 7 14 1022.4 1022.5 0.0
16/08:30am 12.7 8.3 7.2 69 2.7 S 20 33 11 18 1022.3 1022.4 0.0
16/08:00am 12.2 8.6 6.7 69 2.7 S 15 28 8 15 1022.1 1022.2 0.0
16/07:30am 11.6 8.4 6.9 73 2.3 S 13 24 7 13 1021.9 1021.9 0.0
16/07:00am 11.2 7.8 7.5 78 1.8 S 15 22 8 12 1021.5 1021.5 0.0
16/06:30am 11.1 7.4 8.0 81 1.5 S 17 30 9 16 1021.1 1021.1 0.0
16/06:00am 11.5 8.7 8.4 81 1.5 S 13 22 7 12 1021.0 1021.0 0.0
16/05:30am 11.6 8.1 8.6 82 1.5 S 17 28 9 15 1020.4 1020.4 0.0

Other formats

Comma delimited format used in spreadsheet applications
http://www.bom.gov.au/fwo/IDW60801/IDW60801.94620.axf

JavaScript Object Notation format (JSON) in row-major order
http://www.bom.gov.au/fwo/IDW60801/IDW60801.94620.json

Data quality

Most of these data are generated automatically and are frequently updated. Quality checks on data are not normally performed. It is possible for incorrect values to appear. Refer to information at About Latest Weather Observations and please check the disclaimer before using these data.